sensor_id;sensor_type;location;lat;lon;timestamp;P1;durP1;ratioP1;P2;durP2;ratioP2
55368;SDS011;41247;49.736;8.752;2022-12-24T00:00:47;14.88;;;2.50;;
55368;SDS011;41247;49.736;8.752;2022-12-24T00:04:27;26.77;;;3.08;;
55368;SDS011;41247;49.736;8.752;2022-12-24T00:08:08;16.50;;;2.35;;
55368;SDS011;41247;49.736;8.752;2022-12-24T00:11:48;18.85;;;2.55;;
55368;SDS011;41247;49.736;8.752;2022-12-24T00:15:29;24.35;;;3.03;;
55368;SDS011;41247;49.736;8.752;2022-12-24T00:19:10;19.83;;;2.47;;
55368;SDS011;41247;49.736;8.752;2022-12-24T00:22:51;17.65;;;3.10;;
55368;SDS011;41247;49.736;8.752;2022-12-24T00:26:32;21.50;;;2.60;;
55368;SDS011;41247;49.736;8.752;2022-12-24T00:30:13;21.80;;;3.05;;
55368;SDS011;41247;49.736;8.752;2022-12-24T00:33:54;15.88;;;2.70;;
55368;SDS011;41247;49.736;8.752;2022-12-24T00:37:34;23.10;;;3.33;;
55368;SDS011;41247;49.736;8.752;2022-12-24T00:41:15;23.27;;;3.20;;
55368;SDS011;41247;49.736;8.752;2022-12-24T00:44:56;16.67;;;2.47;;
55368;SDS011;41247;49.736;8.752;2022-12-24T00:48:36;16.42;;;2.30;;
55368;SDS011;41247;49.736;8.752;2022-12-24T00:52:17;21.95;;;2.95;;
55368;SDS011;41247;49.736;8.752;2022-12-24T00:55:58;14.30;;;2.80;;
55368;SDS011;41247;49.736;8.752;2022-12-24T00:59:38;14.80;;;2.78;;
55368;SDS011;41247;49.736;8.752;2022-12-24T01:03:19;20.48;;;2.50;;
55368;SDS011;41247;49.736;8.752;2022-12-24T01:07:00;20.77;;;2.80;;
55368;SDS011;41247;49.736;8.752;2022-12-24T01:10:40;17.67;;;2.58;;
55368;SDS011;41247;49.736;8.752;2022-12-24T01:14:21;17.15;;;2.67;;
55368;SDS011;41247;49.736;8.752;2022-12-24T01:18:01;16.17;;;2.40;;
55368;SDS011;41247;49.736;8.752;2022-12-24T01:21:42;24.27;;;2.80;;
55368;SDS011;41247;49.736;8.752;2022-12-24T01:25:23;17.80;;;2.55;;
55368;SDS011;41247;49.736;8.752;2022-12-24T01:29:03;23.38;;;3.15;;
55368;SDS011;41247;49.736;8.752;2022-12-24T01:32:44;14.38;;;2.45;;
55368;SDS011;41247;49.736;8.752;2022-12-24T01:36:24;19.33;;;2.55;;
55368;SDS011;41247;49.736;8.752;2022-12-24T01:40:05;22.08;;;2.80;;
55368;SDS011;41247;49.736;8.752;2022-12-24T01:43:48;16.85;;;2.30;;
55368;SDS011;41247;49.736;8.752;2022-12-24T01:47:28;14.70;;;2.30;;
55368;SDS011;41247;49.736;8.752;2022-12-24T01:51:26;14.48;;;1.92;;
55368;SDS011;41247;49.736;8.752;2022-12-24T01:55:16;15.77;;;2.42;;
55368;SDS011;41247;49.736;8.752;2022-12-24T01:59:03;19.00;;;2.63;;
55368;SDS011;41247;49.736;8.752;2022-12-24T02:02:49;16.08;;;2.33;;
55368;SDS011;41247;49.736;8.752;2022-12-24T02:06:32;17.48;;;2.50;;
55368;SDS011;41247;49.736;8.752;2022-12-24T02:10:12;20.83;;;2.50;;
55368;SDS011;41247;49.736;8.752;2022-12-24T02:13:56;10.45;;;1.70;;
55368;SDS011;41247;49.736;8.752;2022-12-24T02:21:47;11.90;;;2.38;;
55368;SDS011;41247;49.736;8.752;2022-12-24T02:33:54;17.45;;;2.50;;
55368;SDS011;41247;49.736;8.752;2022-12-24T02:37:46;17.77;;;3.47;;
55368;SDS011;41247;49.736;8.752;2022-12-24T02:41:33;21.80;;;2.45;;
55368;SDS011;41247;49.736;8.752;2022-12-24T02:45:17;20.00;;;2.35;;
55368;SDS011;41247;49.736;8.752;2022-12-24T02:49:05;13.75;;;2.13;;
55368;SDS011;41247;49.736;8.752;2022-12-24T02:52:46;21.00;;;2.65;;
55368;SDS011;41247;49.736;8.752;2022-12-24T02:56:30;24.00;;;2.25;;
55368;SDS011;41247;49.736;8.752;2022-12-24T03:00:39;14.68;;;2.53;;
55368;SDS011;41247;49.736;8.752;2022-12-24T03:04:47;17.92;;;2.25;;
55368;SDS011;41247;49.736;8.752;2022-12-24T03:09:19;15.07;;;2.60;;
55368;SDS011;41247;49.736;8.752;2022-12-24T03:13:15;17.65;;;2.47;;
55368;SDS011;41247;49.736;8.752;2022-12-24T03:16:58;17.73;;;2.65;;
55368;SDS011;41247;49.736;8.752;2022-12-24T03:20:41;13.88;;;2.15;;
55368;SDS011;41247;49.736;8.752;2022-12-24T03:24:26;17.13;;;2.95;;
55368;SDS011;41247;49.736;8.752;2022-12-24T03:28:07;21.80;;;3.03;;
55368;SDS011;41247;49.736;8.752;2022-12-24T03:31:52;13.25;;;2.15;;
55368;SDS011;41247;49.736;8.752;2022-12-24T03:35:41;16.67;;;2.28;;
55368;SDS011;41247;49.736;8.752;2022-12-24T03:39:22;18.35;;;2.53;;
55368;SDS011;41247;49.736;8.752;2022-12-24T03:43:02;14.00;;;2.35;;
55368;SDS011;41247;49.736;8.752;2022-12-24T03:46:43;19.13;;;2.85;;
55368;SDS011;41247;49.736;8.752;2022-12-24T03:50:24;19.17;;;2.10;;
55368;SDS011;41247;49.736;8.752;2022-12-24T03:54:04;14.65;;;1.83;;
55368;SDS011;41247;49.736;8.752;2022-12-24T03:57:45;19.73;;;2.60;;
55368;SDS011;41247;49.736;8.752;2022-12-24T04:01:26;22.65;;;2.67;;
55368;SDS011;41247;49.736;8.752;2022-12-24T04:05:07;20.35;;;2.53;;
55368;SDS011;41247;49.736;8.752;2022-12-24T04:08:53;21.23;;;3.03;;
55368;SDS011;41247;49.736;8.752;2022-12-24T04:12:34;21.60;;;3.30;;
55368;SDS011;41247;49.736;8.752;2022-12-24T04:16:15;17.15;;;2.58;;
55368;SDS011;41247;49.736;8.752;2022-12-24T04:19:56;22.35;;;2.60;;
55368;SDS011;41247;49.736;8.752;2022-12-24T04:23:37;21.60;;;3.58;;
55368;SDS011;41247;49.736;8.752;2022-12-24T04:27:19;20.75;;;2.22;;
55368;SDS011;41247;49.736;8.752;2022-12-24T04:31:00;24.00;;;3.42;;
55368;SDS011;41247;49.736;8.752;2022-12-24T04:34:44;22.88;;;2.85;;
55368;SDS011;41247;49.736;8.752;2022-12-24T04:38:25;20.40;;;3.15;;
55368;SDS011;41247;49.736;8.752;2022-12-24T04:42:06;20.45;;;3.05;;
55368;SDS011;41247;49.736;8.752;2022-12-24T04:45:47;20.58;;;2.78;;
55368;SDS011;41247;49.736;8.752;2022-12-24T04:49:27;22.73;;;3.58;;
55368;SDS011;41247;49.736;8.752;2022-12-24T04:53:08;27.77;;;3.60;;
55368;SDS011;41247;49.736;8.752;2022-12-24T04:56:48;25.75;;;3.55;;
55368;SDS011;41247;49.736;8.752;2022-12-24T05:00:29;34.33;;;4.22;;
55368;SDS011;41247;49.736;8.752;2022-12-24T05:04:10;32.67;;;4.13;;
55368;SDS011;41247;49.736;8.752;2022-12-24T05:07:50;26.17;;;3.08;;
55368;SDS011;41247;49.736;8.752;2022-12-24T05:11:31;27.35;;;3.63;;
55368;SDS011;41247;49.736;8.752;2022-12-24T05:15:11;27.58;;;3.50;;
55368;SDS011;41247;49.736;8.752;2022-12-24T05:18:52;26.50;;;3.65;;
55368;SDS011;41247;49.736;8.752;2022-12-24T05:22:33;27.90;;;4.18;;
55368;SDS011;41247;49.736;8.752;2022-12-24T05:26:15;25.15;;;4.20;;
55368;SDS011;41247;49.736;8.752;2022-12-24T05:30:05;33.53;;;4.70;;
55368;SDS011;41247;49.736;8.752;2022-12-24T05:33:46;30.08;;;4.10;;
55368;SDS011;41247;49.736;8.752;2022-12-24T05:37:27;25.73;;;3.72;;
55368;SDS011;41247;49.736;8.752;2022-12-24T05:41:08;24.00;;;2.90;;
55368;SDS011;41247;49.736;8.752;2022-12-24T05:44:49;31.10;;;4.47;;
55368;SDS011;41247;49.736;8.752;2022-12-24T05:48:29;29.35;;;4.10;;
55368;SDS011;41247;49.736;8.752;2022-12-24T05:52:10;32.17;;;4.15;;
55368;SDS011;41247;49.736;8.752;2022-12-24T05:55:51;27.20;;;3.80;;
55368;SDS011;41247;49.736;8.752;2022-12-24T05:59:31;31.23;;;4.05;;
55368;SDS011;41247;49.736;8.752;2022-12-24T06:03:12;28.35;;;3.95;;
55368;SDS011;41247;49.736;8.752;2022-12-24T06:06:52;26.58;;;4.65;;
55368;SDS011;41247;49.736;8.752;2022-12-24T06:10:33;38.40;;;6.65;;
55368;SDS011;41247;49.736;8.752;2022-12-24T06:14:14;32.78;;;4.22;;
55368;SDS011;41247;49.736;8.752;2022-12-24T06:17:54;31.02;;;3.78;;
55368;SDS011;41247;49.736;8.752;2022-12-24T06:21:35;29.13;;;4.28;;
55368;SDS011;41247;49.736;8.752;2022-12-24T06:25:15;25.75;;;3.83;;
55368;SDS011;41247;49.736;8.752;2022-12-24T06:38:30;27.35;;;4.10;;
55368;SDS011;41247;49.736;8.752;2022-12-24T09:18:25;31.60;;;4.53;;
55368;SDS011;41247;49.736;8.752;2022-12-24T09:22:06;32.67;;;4.43;;
55368;SDS011;41247;49.736;8.752;2022-12-24T09:25:47;32.22;;;5.05;;
55368;SDS011;41247;49.736;8.752;2022-12-24T09:29:27;33.67;;;4.28;;
55368;SDS011;41247;49.736;8.752;2022-12-24T09:33:09;34.50;;;5.07;;
55368;SDS011;41247;49.736;8.752;2022-12-24T09:36:49;29.20;;;3.42;;
55368;SDS011;41247;49.736;8.752;2022-12-24T09:40:37;34.85;;;4.88;;
55368;SDS011;41247;49.736;8.752;2022-12-24T09:44:33;31.23;;;4.47;;
55368;SDS011;41247;49.736;8.752;2022-12-24T09:49:02;37.08;;;4.95;;
55368;SDS011;41247;49.736;8.752;2022-12-24T09:52:45;31.30;;;4.63;;
55368;SDS011;41247;49.736;8.752;2022-12-24T09:56:32;38.28;;;4.93;;
55368;SDS011;41247;49.736;8.752;2022-12-24T10:00:26;28.90;;;3.78;;
55368;SDS011;41247;49.736;8.752;2022-12-24T10:04:11;42.25;;;5.57;;
55368;SDS011;41247;49.736;8.752;2022-12-24T10:12:21;32.67;;;4.97;;
55368;SDS011;41247;49.736;8.752;2022-12-24T10:16:22;43.00;;;5.45;;
55368;SDS011;41247;49.736;8.752;2022-12-24T10:24:23;38.17;;;5.10;;
55368;SDS011;41247;49.736;8.752;2022-12-24T10:28:14;37.00;;;4.55;;
55368;SDS011;41247;49.736;8.752;2022-12-24T10:32:01;38.75;;;5.65;;
55368;SDS011;41247;49.736;8.752;2022-12-24T10:35:50;32.97;;;5.45;;
55368;SDS011;41247;49.736;8.752;2022-12-24T10:39:35;31.48;;;4.65;;
55368;SDS011;41247;49.736;8.752;2022-12-24T10:43:17;33.53;;;4.65;;
55368;SDS011;41247;49.736;8.752;2022-12-24T10:47:01;41.40;;;5.45;;
55368;SDS011;41247;49.736;8.752;2022-12-24T10:50:59;35.38;;;5.35;;
55368;SDS011;41247;49.736;8.752;2022-12-24T10:59:01;41.33;;;4.55;;
55368;SDS011;41247;49.736;8.752;2022-12-24T11:02:42;32.40;;;4.10;;
55368;SDS011;41247;49.736;8.752;2022-12-24T11:06:22;32.03;;;4.32;;
55368;SDS011;41247;49.736;8.752;2022-12-24T11:10:06;31.92;;;4.38;;
55368;SDS011;41247;49.736;8.752;2022-12-24T11:13:53;29.90;;;4.65;;
55368;SDS011;41247;49.736;8.752;2022-12-24T11:17:35;39.27;;;4.93;;
55368;SDS011;41247;49.736;8.752;2022-12-24T11:21:19;36.03;;;5.28;;
55368;SDS011;41247;49.736;8.752;2022-12-24T11:25:19;36.70;;;4.45;;
55368;SDS011;41247;49.736;8.752;2022-12-24T11:29:19;34.53;;;5.25;;
55368;SDS011;41247;49.736;8.752;2022-12-24T11:36:44;35.30;;;4.95;;
55368;SDS011;41247;49.736;8.752;2022-12-24T11:40:27;34.22;;;4.72;;
55368;SDS011;41247;49.736;8.752;2022-12-24T11:44:14;37.53;;;8.25;;
55368;SDS011;41247;49.736;8.752;2022-12-24T11:48:21;43.60;;;5.53;;
55368;SDS011;41247;49.736;8.752;2022-12-24T11:55:52;35.72;;;5.90;;
55368;SDS011;41247;49.736;8.752;2022-12-24T11:59:43;33.97;;;5.93;;
55368;SDS011;41247;49.736;8.752;2022-12-24T12:03:31;30.23;;;4.82;;
55368;SDS011;41247;49.736;8.752;2022-12-24T12:07:20;34.30;;;4.45;;
55368;SDS011;41247;49.736;8.752;2022-12-24T12:11:09;31.55;;;4.65;;
55368;SDS011;41247;49.736;8.752;2022-12-24T12:14:57;32.58;;;4.65;;
55368;SDS011;41247;49.736;8.752;2022-12-24T12:18:43;30.88;;;4.57;;
55368;SDS011;41247;49.736;8.752;2022-12-24T12:27:02;29.85;;;4.03;;
55368;SDS011;41247;49.736;8.752;2022-12-24T12:35:01;28.10;;;4.28;;
55368;SDS011;41247;49.736;8.752;2022-12-24T12:38:55;36.63;;;5.43;;
55368;SDS011;41247;49.736;8.752;2022-12-24T12:42:36;36.42;;;4.90;;
55368;SDS011;41247;49.736;8.752;2022-12-24T12:46:20;37.05;;;4.68;;
55368;SDS011;41247;49.736;8.752;2022-12-24T12:54:19;31.92;;;5.00;;
55368;SDS011;41247;49.736;8.752;2022-12-24T12:58:26;40.90;;;4.93;;
55368;SDS011;41247;49.736;8.752;2022-12-24T13:10:37;38.75;;;5.57;;
55368;SDS011;41247;49.736;8.752;2022-12-24T13:18:56;35.08;;;4.93;;
55368;SDS011;41247;49.736;8.752;2022-12-24T13:23:08;36.85;;;5.20;;
55368;SDS011;41247;49.736;8.752;2022-12-24T13:34:41;49.17;;;9.52;;
55368;SDS011;41247;49.736;8.752;2022-12-24T13:38:54;52.00;;;12.50;;
55368;SDS011;41247;49.736;8.752;2022-12-24T13:47:15;39.85;;;7.90;;
55368;SDS011;41247;49.736;8.752;2022-12-24T13:51:17;33.05;;;5.75;;
55368;SDS011;41247;49.736;8.752;2022-12-24T13:55:06;37.65;;;5.20;;
55368;SDS011;41247;49.736;8.752;2022-12-24T14:06:51;39.42;;;4.80;;
55368;SDS011;41247;49.736;8.752;2022-12-24T14:10:35;32.35;;;4.85;;
55368;SDS011;41247;49.736;8.752;2022-12-24T14:14:28;34.65;;;4.75;;
55368;SDS011;41247;49.736;8.752;2022-12-24T14:18:18;35.55;;;5.05;;
55368;SDS011;41247;49.736;8.752;2022-12-24T14:22:18;38.63;;;5.82;;
55368;SDS011;41247;49.736;8.752;2022-12-24T14:26:19;34.92;;;5.80;;
55368;SDS011;41247;49.736;8.752;2022-12-24T14:30:05;46.90;;;6.35;;
55368;SDS011;41247;49.736;8.752;2022-12-24T14:34:11;38.95;;;6.22;;
55368;SDS011;41247;49.736;8.752;2022-12-24T14:46:21;28.08;;;4.38;;
55368;SDS011;41247;49.736;8.752;2022-12-24T14:50:34;25.67;;;3.65;;
55368;SDS011;41247;49.736;8.752;2022-12-24T14:58:31;26.50;;;3.05;;
55368;SDS011;41247;49.736;8.752;2022-12-24T15:02:28;20.67;;;3.85;;
55368;SDS011;41247;49.736;8.752;2022-12-24T15:06:30;36.67;;;5.40;;
55368;SDS011;41247;49.736;8.752;2022-12-24T15:10:33;28.58;;;4.47;;
55368;SDS011;41247;49.736;8.752;2022-12-24T15:14:17;35.05;;;6.10;;
55368;SDS011;41247;49.736;8.752;2022-12-24T15:17:58;28.15;;;5.88;;
55368;SDS011;41247;49.736;8.752;2022-12-24T15:21:41;31.92;;;5.70;;
55368;SDS011;41247;49.736;8.752;2022-12-24T15:25:29;32.42;;;5.97;;
55368;SDS011;41247;49.736;8.752;2022-12-24T15:29:20;24.08;;;5.07;;
55368;SDS011;41247;49.736;8.752;2022-12-24T15:33:04;28.90;;;4.78;;
55368;SDS011;41247;49.736;8.752;2022-12-24T15:36:45;32.58;;;4.28;;
55368;SDS011;41247;49.736;8.752;2022-12-24T15:40:25;30.42;;;5.00;;
55368;SDS011;41247;49.736;8.752;2022-12-24T15:44:11;28.38;;;5.13;;
55368;SDS011;41247;49.736;8.752;2022-12-24T15:47:55;84.43;;;25.25;;
55368;SDS011;41247;49.736;8.752;2022-12-24T15:51:39;46.13;;;8.15;;
55368;SDS011;41247;49.736;8.752;2022-12-24T15:55:24;36.08;;;9.38;;
55368;SDS011;41247;49.736;8.752;2022-12-24T16:03:10;31.13;;;7.88;;
55368;SDS011;41247;49.736;8.752;2022-12-24T16:06:58;43.05;;;13.90;;
55368;SDS011;41247;49.736;8.752;2022-12-24T16:10:42;34.50;;;5.65;;
55368;SDS011;41247;49.736;8.752;2022-12-24T16:14:55;41.08;;;7.40;;
55368;SDS011;41247;49.736;8.752;2022-12-24T16:18:51;38.95;;;6.80;;
55368;SDS011;41247;49.736;8.752;2022-12-24T16:22:35;33.55;;;6.07;;
55368;SDS011;41247;49.736;8.752;2022-12-24T16:26:25;29.95;;;5.82;;
55368;SDS011;41247;49.736;8.752;2022-12-24T16:30:06;38.55;;;5.43;;
55368;SDS011;41247;49.736;8.752;2022-12-24T16:33:50;30.98;;;5.68;;
55368;SDS011;41247;49.736;8.752;2022-12-24T16:37:32;35.17;;;6.35;;
55368;SDS011;41247;49.736;8.752;2022-12-24T16:41:12;28.55;;;5.78;;
55368;SDS011;41247;49.736;8.752;2022-12-24T16:44:53;28.02;;;5.82;;
55368;SDS011;41247;49.736;8.752;2022-12-24T16:48:37;49.25;;;8.50;;
55368;SDS011;41247;49.736;8.752;2022-12-24T16:52:25;41.05;;;7.60;;
55368;SDS011;41247;49.736;8.752;2022-12-24T16:56:28;39.40;;;6.70;;
55368;SDS011;41247;49.736;8.752;2022-12-24T17:00:18;42.70;;;6.88;;
55368;SDS011;41247;49.736;8.752;2022-12-24T17:04:16;39.97;;;6.90;;
55368;SDS011;41247;49.736;8.752;2022-12-24T17:07:58;30.52;;;6.30;;
55368;SDS011;41247;49.736;8.752;2022-12-24T17:11:45;40.47;;;7.32;;
55368;SDS011;41247;49.736;8.752;2022-12-24T17:15:46;43.83;;;6.32;;
55368;SDS011;41247;49.736;8.752;2022-12-24T17:19:27;30.52;;;6.45;;
55368;SDS011;41247;49.736;8.752;2022-12-24T17:23:10;42.53;;;6.85;;
55368;SDS011;41247;49.736;8.752;2022-12-24T17:26:51;41.53;;;6.10;;
55368;SDS011;41247;49.736;8.752;2022-12-24T17:30:32;31.83;;;5.60;;
55368;SDS011;41247;49.736;8.752;2022-12-24T17:34:18;36.47;;;6.10;;
55368;SDS011;41247;49.736;8.752;2022-12-24T17:37:58;42.42;;;6.78;;
55368;SDS011;41247;49.736;8.752;2022-12-24T17:41:41;39.65;;;10.55;;
55368;SDS011;41247;49.736;8.752;2022-12-24T17:45:22;49.47;;;9.27;;
55368;SDS011;41247;49.736;8.752;2022-12-24T17:49:08;34.08;;;6.90;;
55368;SDS011;41247;49.736;8.752;2022-12-24T17:53:28;37.30;;;6.30;;
55368;SDS011;41247;49.736;8.752;2022-12-24T17:57:09;41.72;;;6.70;;
55368;SDS011;41247;49.736;8.752;2022-12-24T18:00:49;30.50;;;6.20;;
55368;SDS011;41247;49.736;8.752;2022-12-24T18:04:33;37.20;;;5.78;;
55368;SDS011;41247;49.736;8.752;2022-12-24T18:08:20;32.97;;;5.65;;
55368;SDS011;41247;49.736;8.752;2022-12-24T18:12:00;40.38;;;6.28;;
55368;SDS011;41247;49.736;8.752;2022-12-24T18:15:41;43.78;;;6.80;;
55368;SDS011;41247;49.736;8.752;2022-12-24T18:19:22;34.33;;;5.65;;
55368;SDS011;41247;49.736;8.752;2022-12-24T18:23:02;28.10;;;5.45;;
55368;SDS011;41247;49.736;8.752;2022-12-24T18:26:43;37.50;;;6.47;;
55368;SDS011;41247;49.736;8.752;2022-12-24T18:34:15;34.65;;;6.07;;
55368;SDS011;41247;49.736;8.752;2022-12-24T18:37:56;27.27;;;4.95;;
55368;SDS011;41247;49.736;8.752;2022-12-24T18:41:36;37.30;;;6.50;;
55368;SDS011;41247;49.736;8.752;2022-12-24T18:45:17;39.47;;;5.55;;
55368;SDS011;41247;49.736;8.752;2022-12-24T18:48:58;32.90;;;5.75;;
55368;SDS011;41247;49.736;8.752;2022-12-24T18:52:39;36.78;;;6.00;;
55368;SDS011;41247;49.736;8.752;2022-12-24T18:56:21;28.55;;;4.88;;
55368;SDS011;41247;49.736;8.752;2022-12-24T19:00:04;27.13;;;4.78;;
55368;SDS011;41247;49.736;8.752;2022-12-24T19:03:45;31.10;;;5.10;;
55368;SDS011;41247;49.736;8.752;2022-12-24T19:07:27;30.23;;;5.80;;
55368;SDS011;41247;49.736;8.752;2022-12-24T19:11:07;31.92;;;5.68;;
55368;SDS011;41247;49.736;8.752;2022-12-24T19:14:48;27.90;;;5.15;;
55368;SDS011;41247;49.736;8.752;2022-12-24T19:18:28;28.80;;;4.65;;
55368;SDS011;41247;49.736;8.752;2022-12-24T19:22:09;33.08;;;4.63;;
55368;SDS011;41247;49.736;8.752;2022-12-24T19:25:49;26.98;;;4.88;;
55368;SDS011;41247;49.736;8.752;2022-12-24T19:29:30;38.20;;;5.10;;
55368;SDS011;41247;49.736;8.752;2022-12-24T19:33:11;38.63;;;5.35;;
55368;SDS011;41247;49.736;8.752;2022-12-24T19:36:51;31.20;;;5.65;;
55368;SDS011;41247;49.736;8.752;2022-12-24T19:40:34;34.58;;;5.20;;
55368;SDS011;41247;49.736;8.752;2022-12-24T19:44:16;35.58;;;6.05;;
55368;SDS011;41247;49.736;8.752;2022-12-24T19:47:57;31.20;;;5.22;;
55368;SDS011;41247;49.736;8.752;2022-12-24T19:51:37;34.35;;;6.20;;
55368;SDS011;41247;49.736;8.752;2022-12-24T19:55:18;34.83;;;6.50;;
55368;SDS011;41247;49.736;8.752;2022-12-24T19:58:59;35.58;;;5.63;;
55368;SDS011;41247;49.736;8.752;2022-12-24T20:02:41;29.98;;;6.00;;
55368;SDS011;41247;49.736;8.752;2022-12-24T20:06:22;33.42;;;5.60;;
55368;SDS011;41247;49.736;8.752;2022-12-24T20:10:06;31.05;;;7.45;;
55368;SDS011;41247;49.736;8.752;2022-12-24T20:13:48;31.65;;;5.20;;
55368;SDS011;41247;49.736;8.752;2022-12-24T20:17:28;31.88;;;6.15;;
55368;SDS011;41247;49.736;8.752;2022-12-24T20:21:10;36.75;;;6.18;;
55368;SDS011;41247;49.736;8.752;2022-12-24T20:24:51;29.08;;;5.80;;
55368;SDS011;41247;49.736;8.752;2022-12-24T20:28:32;43.25;;;7.25;;
55368;SDS011;41247;49.736;8.752;2022-12-24T20:32:14;29.25;;;6.15;;
55368;SDS011;41247;49.736;8.752;2022-12-24T20:35:59;31.13;;;6.03;;
55368;SDS011;41247;49.736;8.752;2022-12-24T20:39:41;42.17;;;6.20;;
55368;SDS011;41247;49.736;8.752;2022-12-24T20:43:21;38.25;;;5.85;;
55368;SDS011;41247;49.736;8.752;2022-12-24T20:47:02;36.10;;;7.22;;
55368;SDS011;41247;49.736;8.752;2022-12-24T20:50:43;34.17;;;5.72;;
55368;SDS011;41247;49.736;8.752;2022-12-24T20:54:26;35.08;;;6.85;;
55368;SDS011;41247;49.736;8.752;2022-12-24T20:58:08;41.70;;;6.53;;
55368;SDS011;41247;49.736;8.752;2022-12-24T21:01:57;41.65;;;7.10;;
55368;SDS011;41247;49.736;8.752;2022-12-24T21:05:41;39.25;;;8.45;;
55368;SDS011;41247;49.736;8.752;2022-12-24T21:09:22;35.65;;;5.53;;
55368;SDS011;41247;49.736;8.752;2022-12-24T21:13:03;34.95;;;6.70;;
55368;SDS011;41247;49.736;8.752;2022-12-24T21:16:45;51.80;;;10.27;;
55368;SDS011;41247;49.736;8.752;2022-12-24T21:20:25;40.60;;;6.57;;
55368;SDS011;41247;49.736;8.752;2022-12-24T21:24:25;37.47;;;6.22;;
55368;SDS011;41247;49.736;8.752;2022-12-24T21:28:05;28.48;;;5.88;;
55368;SDS011;41247;49.736;8.752;2022-12-24T21:31:46;45.65;;;6.40;;
55368;SDS011;41247;49.736;8.752;2022-12-24T21:35:26;34.20;;;6.13;;
55368;SDS011;41247;49.736;8.752;2022-12-24T21:39:07;32.42;;;5.45;;
55368;SDS011;41247;49.736;8.752;2022-12-24T21:42:48;36.15;;;5.95;;
55368;SDS011;41247;49.736;8.752;2022-12-24T21:46:28;32.95;;;5.90;;
55368;SDS011;41247;49.736;8.752;2022-12-24T21:50:09;30.27;;;5.45;;
55368;SDS011;41247;49.736;8.752;2022-12-24T21:53:50;38.47;;;5.50;;
55368;SDS011;41247;49.736;8.752;2022-12-24T21:57:31;32.38;;;6.00;;
55368;SDS011;41247;49.736;8.752;2022-12-24T22:01:12;35.92;;;6.07;;
55368;SDS011;41247;49.736;8.752;2022-12-24T22:04:53;29.20;;;5.22;;
55368;SDS011;41247;49.736;8.752;2022-12-24T22:08:33;25.77;;;5.60;;
55368;SDS011;41247;49.736;8.752;2022-12-24T22:12:14;34.38;;;5.75;;
55368;SDS011;41247;49.736;8.752;2022-12-24T22:15:55;28.88;;;5.00;;
55368;SDS011;41247;49.736;8.752;2022-12-24T22:19:35;39.03;;;5.82;;
55368;SDS011;41247;49.736;8.752;2022-12-24T22:23:16;32.47;;;5.60;;
55368;SDS011;41247;49.736;8.752;2022-12-24T22:26:58;31.25;;;5.32;;
55368;SDS011;41247;49.736;8.752;2022-12-24T22:30:39;33.35;;;5.75;;
55368;SDS011;41247;49.736;8.752;2022-12-24T22:34:21;33.17;;;6.25;;
55368;SDS011;41247;49.736;8.752;2022-12-24T22:38:02;32.25;;;6.00;;
55368;SDS011;41247;49.736;8.752;2022-12-24T22:41:42;31.52;;;6.78;;
55368;SDS011;41247;49.736;8.752;2022-12-24T22:45:23;36.70;;;6.35;;
55368;SDS011;41247;49.736;8.752;2022-12-24T22:49:03;34.95;;;6.97;;
55368;SDS011;41247;49.736;8.752;2022-12-24T22:52:44;30.45;;;6.45;;
55368;SDS011;41247;49.736;8.752;2022-12-24T22:56:24;28.75;;;6.97;;
55368;SDS011;41247;49.736;8.752;2022-12-24T23:00:10;35.65;;;7.57;;
55368;SDS011;41247;49.736;8.752;2022-12-24T23:04:14;31.50;;;7.50;;
55368;SDS011;41247;49.736;8.752;2022-12-24T23:07:55;43.28;;;10.05;;
55368;SDS011;41247;49.736;8.752;2022-12-24T23:11:35;31.23;;;9.35;;
55368;SDS011;41247;49.736;8.752;2022-12-24T23:15:16;38.42;;;10.23;;
55368;SDS011;41247;49.736;8.752;2022-12-24T23:18:57;33.05;;;8.35;;
55368;SDS011;41247;49.736;8.752;2022-12-24T23:22:40;26.85;;;8.98;;
55368;SDS011;41247;49.736;8.752;2022-12-24T23:26:21;33.28;;;9.10;;
55368;SDS011;41247;49.736;8.752;2022-12-24T23:30:03;24.45;;;8.63;;
55368;SDS011;41247;49.736;8.752;2022-12-24T23:33:44;42.42;;;14.25;;
55368;SDS011;41247;49.736;8.752;2022-12-24T23:37:25;27.10;;;9.10;;
55368;SDS011;41247;49.736;8.752;2022-12-24T23:41:12;32.40;;;10.82;;
55368;SDS011;41247;49.736;8.752;2022-12-24T23:44:55;39.65;;;12.60;;
55368;SDS011;41247;49.736;8.752;2022-12-24T23:48:36;34.17;;;10.02;;
55368;SDS011;41247;49.736;8.752;2022-12-24T23:52:16;32.95;;;9.13;;
55368;SDS011;41247;49.736;8.752;2022-12-24T23:55:57;32.72;;;9.32;;
55368;SDS011;41247;49.736;8.752;2022-12-24T23:59:37;31.98;;;10.13;;
